createdAt,value
2017-12-26T00:00:10.249Z,0
2017-12-26T00:00:51.702Z,0
2017-12-26T00:01:32.100Z,0
2017-12-26T00:02:13.092Z,0
2017-12-26T00:02:53.551Z,0
2017-12-26T00:03:34.700Z,0
2017-12-26T00:04:15.221Z,0
2017-12-26T00:04:55.746Z,0
2017-12-26T00:05:36.213Z,0
2017-12-26T00:06:16.721Z,0
2017-12-26T00:06:57.032Z,0
2017-12-26T00:07:37.437Z,0
2017-12-26T00:09:56.268Z,0
2017-12-26T00:10:36.606Z,0
2017-12-26T00:11:17.129Z,0
2017-12-26T00:11:57.443Z,0
2017-12-26T00:12:38.022Z,0
2017-12-26T00:13:18.445Z,0
2017-12-26T00:14:01.216Z,0
2017-12-26T00:14:41.353Z,0
2017-12-26T00:15:21.974Z,0
2017-12-26T00:16:02.146Z,0
2017-12-26T00:18:25.920Z,0
2017-12-26T00:19:12.070Z,0
2017-12-26T00:19:51.658Z,0
2017-12-26T00:20:32.038Z,0
2017-12-26T00:21:12.573Z,0
2017-12-26T00:21:53.089Z,0
2017-12-26T00:22:35.764Z,0
2017-12-26T00:23:16.723Z,0
2017-12-26T00:23:56.994Z,0
2017-12-26T00:24:39.143Z,0
2017-12-26T00:25:19.586Z,0
2017-12-26T00:26:00.060Z,0
2017-12-26T00:26:40.723Z,0
2017-12-26T00:27:21.223Z,0
2017-12-26T00:28:01.581Z,0
2017-12-26T00:28:42.095Z,0
2017-12-26T00:29:22.505Z,0
2017-12-26T00:30:02.926Z,0
2017-12-26T00:30:43.317Z,0
2017-12-26T00:35:08.585Z,0
2017-12-26T00:35:50.132Z,0
2017-12-26T00:36:30.748Z,0
2017-12-26T00:37:11.117Z,0
2017-12-26T00:37:51.525Z,0
2017-12-26T00:38:31.985Z,0
2017-12-26T00:39:12.353Z,0
2017-12-26T00:39:52.792Z,0
2017-12-26T00:40:33.687Z,0
2017-12-26T00:41:14.251Z,0
2017-12-26T00:41:56.471Z,0
2017-12-26T00:42:36.386Z,0
2017-12-26T00:43:16.830Z,0
2017-12-26T00:43:58.268Z,0
2017-12-26T00:44:38.709Z,0
2017-12-26T00:45:21.078Z,0
2017-12-26T00:46:01.494Z,0
2017-12-26T00:46:42.324Z,0
2017-12-26T00:47:23.286Z,0
2017-12-26T00:48:03.474Z,0
2017-12-26T00:48:47.406Z,0
2017-12-26T00:49:27.790Z,0
2017-12-26T00:50:08.261Z,0
2017-12-26T00:50:48.704Z,0
2017-12-26T00:51:29.083Z,0
2017-12-26T00:52:10.519Z,0
2017-12-26T00:52:53.348Z,0
2017-12-26T00:53:33.638Z,0
2017-12-26T00:54:15.083Z,0
2017-12-26T00:54:55.374Z,0
2017-12-26T00:55:35.777Z,0
2017-12-26T00:56:17.299Z,0
2017-12-26T00:56:58.597Z,0
2017-12-26T00:57:39.450Z,0
2017-12-26T00:58:19.890Z,0
2017-12-26T01:02:40.132Z,0
2017-12-26T01:03:22.606Z,0
2017-12-26T01:04:03.067Z,0
2017-12-26T01:04:43.261Z,0
2017-12-26T01:05:24.110Z,0
2017-12-26T01:06:04.617Z,0
2017-12-26T01:06:45.054Z,0
2017-12-26T01:07:25.569Z,0
2017-12-26T01:08:07.780Z,0
2017-12-26T01:08:49.652Z,0
2017-12-26T01:09:30.248Z,0
2017-12-26T01:10:10.674Z,0
2017-12-26T01:10:51.140Z,0
2017-12-26T01:11:31.553Z,0
2017-12-26T01:12:12.035Z,0
2017-12-26T01:12:52.384Z,0
2017-12-26T01:13:32.850Z,0
2017-12-26T01:14:13.807Z,0
2017-12-26T01:14:55.117Z,0
2017-12-26T01:15:37.085Z,0
2017-12-26T01:16:17.547Z,0
2017-12-26T01:16:59.389Z,0
2017-12-26T01:17:40.094Z,0
2017-12-26T01:18:20.473Z,0
2017-12-26T01:19:00.843Z,0
2017-12-26T01:19:41.172Z,0
2017-12-26T01:20:21.604Z,0
2017-12-26T01:21:02.428Z,0
2017-12-26T01:21:42.656Z,0
2017-12-26T01:22:23.172Z,0
2017-12-26T01:23:03.481Z,0
2017-12-26T01:23:44.001Z,0
2017-12-26T01:24:24.814Z,0
2017-12-26T01:25:05.086Z,0
2017-12-26T01:25:45.520Z,0
2017-12-26T01:26:25.922Z,0
2017-12-26T01:27:06.818Z,0
2017-12-26T01:27:47.525Z,0
2017-12-26T01:28:27.995Z,0
2017-12-26T01:29:08.424Z,0
2017-12-26T01:29:48.845Z,0
2017-12-26T01:30:29.334Z,0
2017-12-26T01:31:09.775Z,0
2017-12-26T01:31:50.515Z,0
2017-12-26T01:32:30.822Z,0
2017-12-26T01:33:11.225Z,0
2017-12-26T01:33:51.662Z,0
2017-12-26T01:34:32.146Z,0
2017-12-26T01:35:12.466Z,0
2017-12-26T01:35:52.943Z,0
2017-12-26T01:36:33.386Z,0
2017-12-26T01:37:13.735Z,0
2017-12-26T01:37:54.107Z,0
2017-12-26T01:38:34.534Z,0
2017-12-26T01:39:14.920Z,0
2017-12-26T01:39:55.301Z,0
2017-12-26T01:40:35.980Z,0
2017-12-26T01:41:16.261Z,0
2017-12-26T01:41:56.550Z,0
2017-12-26T01:42:36.988Z,0
2017-12-26T01:43:17.428Z,0
2017-12-26T01:43:57.943Z,0
2017-12-26T01:44:38.267Z,0
2017-12-26T01:45:18.714Z,0
2017-12-26T01:45:59.030Z,0
2017-12-26T01:46:39.483Z,0
2017-12-26T01:47:19.836Z,0
2017-12-26T01:48:00.417Z,0
2017-12-26T01:48:40.723Z,0
2017-12-26T01:49:21.099Z,0
2017-12-26T01:50:01.521Z,0
2017-12-26T01:50:42.029Z,0
2017-12-26T01:51:22.401Z,0
2017-12-26T01:52:02.738Z,0
2017-12-26T01:52:43.156Z,0
2017-12-26T01:53:23.570Z,0
2017-12-26T01:54:04.003Z,0
2017-12-26T01:54:44.845Z,0
2017-12-26T01:55:25.248Z,0
2017-12-26T01:56:05.626Z,0
2017-12-26T01:56:46.078Z,0
2017-12-26T01:57:26.642Z,0
2017-12-26T01:58:06.893Z,0
2017-12-26T01:58:47.309Z,0
2017-12-26T01:59:27.820Z,0
2017-12-26T02:00:08.253Z,0
2017-12-26T02:00:48.673Z,0
2017-12-26T02:01:29.027Z,0
2017-12-26T02:02:09.484Z,0
2017-12-26T02:02:50.240Z,0
2017-12-26T02:03:30.654Z,0
2017-12-26T02:04:11.442Z,0
2017-12-26T02:04:51.577Z,0
2017-12-26T02:05:32.113Z,0
2017-12-26T02:06:12.454Z,0
2017-12-26T02:06:52.904Z,0
2017-12-26T02:07:33.595Z,0
2017-12-26T02:08:14.185Z,0
2017-12-26T02:08:54.681Z,0
2017-12-26T02:09:35.041Z,0
2017-12-26T02:10:15.472Z,0
2017-12-26T02:10:55.857Z,0
2017-12-26T02:11:36.766Z,0
2017-12-26T02:12:17.201Z,0
2017-12-26T02:12:57.583Z,0
2017-12-26T02:13:38.363Z,0
2017-12-26T02:14:18.654Z,0
2017-12-26T02:14:59.329Z,0
2017-12-26T02:15:39.767Z,0
2017-12-26T02:16:20.128Z,0
2017-12-26T02:17:00.570Z,0
2017-12-26T02:17:41.102Z,0
2017-12-26T02:18:21.436Z,0
2017-12-26T02:19:02.664Z,0
2017-12-26T02:19:43.199Z,0
2017-12-26T02:20:23.548Z,0
2017-12-26T02:21:03.918Z,0
2017-12-26T02:21:44.340Z,0
2017-12-26T02:22:24.731Z,0
2017-12-26T02:23:05.154Z,0
2017-12-26T02:23:45.538Z,0
2017-12-26T02:24:26.066Z,0
2017-12-26T02:25:06.445Z,0
2017-12-26T02:25:46.886Z,0
2017-12-26T02:26:27.329Z,0
2017-12-26T02:27:07.733Z,0
2017-12-26T02:27:48.260Z,0
2017-12-26T02:28:28.913Z,0
2017-12-26T02:29:09.762Z,0
2017-12-26T02:29:49.784Z,0
2017-12-26T02:30:30.321Z,0
2017-12-26T02:31:10.823Z,0
2017-12-26T02:31:51.191Z,0
2017-12-26T02:32:31.673Z,0
2017-12-26T02:33:12.335Z,0
2017-12-26T02:33:53.683Z,0
2017-12-26T02:34:33.381Z,0
2017-12-26T02:35:13.787Z,0
2017-12-26T02:35:54.198Z,0
2017-12-26T02:36:35.367Z,0
2017-12-26T02:37:15.324Z,0
2017-12-26T02:37:55.664Z,0
2017-12-26T02:38:36.082Z,0
2017-12-26T02:39:16.547Z,0
2017-12-26T02:39:57.042Z,0
2017-12-26T02:40:37.387Z,0
2017-12-26T02:41:18.169Z,0
2017-12-26T02:41:58.513Z,0
2017-12-26T02:42:38.883Z,0
2017-12-26T02:43:21.992Z,0
2017-12-26T02:44:02.265Z,0
2017-12-26T02:44:42.734Z,0
2017-12-26T02:45:23.452Z,0
2017-12-26T02:46:03.818Z,0
2017-12-26T02:46:44.096Z,0
2017-12-26T02:47:24.688Z,0
2017-12-26T02:48:04.977Z,0
2017-12-26T02:48:45.292Z,0
2017-12-26T02:49:25.827Z,0
2017-12-26T02:50:06.247Z,0
2017-12-26T02:50:46.863Z,0
2017-12-26T02:51:27.170Z,0
2017-12-26T02:52:07.855Z,0
2017-12-26T02:52:48.327Z,0
2017-12-26T02:53:28.898Z,0
2017-12-26T02:54:09.194Z,0
2017-12-26T02:54:49.650Z,0
2017-12-26T02:55:30.083Z,0
2017-12-26T02:56:10.459Z,0
2017-12-26T02:56:51.031Z,0
2017-12-26T02:57:31.330Z,0
2017-12-26T02:58:11.972Z,0
2017-12-26T02:58:52.450Z,0
2017-12-26T02:59:33.103Z,0
2017-12-26T03:00:13.426Z,0
2017-12-26T03:00:54.098Z,0
2017-12-26T03:01:34.284Z,0
2017-12-26T03:02:14.800Z,0
2017-12-26T03:02:55.197Z,0
2017-12-26T03:03:35.691Z,0
2017-12-26T03:04:16.258Z,0
2017-12-26T03:04:57.029Z,0
2017-12-26T03:05:37.104Z,0
2017-12-26T03:06:17.495Z,0
2017-12-26T03:06:58.235Z,0
2017-12-26T03:07:38.513Z,0
2017-12-26T03:08:18.920Z,0
2017-12-26T03:08:59.520Z,0
2017-12-26T03:09:39.883Z,0
2017-12-26T03:10:20.288Z,0
2017-12-26T03:11:00.720Z,0
2017-12-26T03:11:41.161Z,0
2017-12-26T03:12:21.581Z,0
2017-12-26T03:13:01.919Z,0
2017-12-26T03:13:42.405Z,0
2017-12-26T03:14:22.831Z,0
2017-12-26T03:15:03.240Z,0
2017-12-26T03:15:43.630Z,0
2017-12-26T03:16:24.172Z,0
2017-12-26T03:17:04.490Z,0
2017-12-26T03:17:44.924Z,0
2017-12-26T03:18:25.522Z,0
2017-12-26T03:19:05.817Z,0
2017-12-26T03:19:46.274Z,0
2017-12-26T03:20:26.634Z,0
2017-12-26T03:21:07.048Z,0
2017-12-26T03:21:47.560Z,0
2017-12-26T03:22:27.970Z,0
2017-12-26T03:23:08.587Z,0
2017-12-26T03:23:48.964Z,0
2017-12-26T03:24:29.455Z,0
2017-12-26T03:25:09.976Z,0
2017-12-26T03:25:50.577Z,0
2017-12-26T03:26:31.452Z,0
2017-12-26T03:27:11.577Z,0
2017-12-26T03:27:52.092Z,0
2017-12-26T03:28:32.487Z,0
2017-12-26T03:29:13.041Z,0
2017-12-26T03:29:53.702Z,0
2017-12-26T03:30:33.776Z,0
2017-12-26T03:31:14.172Z,0
2017-12-26T03:31:54.619Z,0
2017-12-26T03:32:34.997Z,0
2017-12-26T03:33:15.454Z,0
2017-12-26T03:33:56.047Z,0
2017-12-26T03:34:36.464Z,0
2017-12-26T03:35:16.867Z,0
2017-12-26T03:35:57.377Z,0
2017-12-26T03:36:37.890Z,0
2017-12-26T03:37:18.184Z,0
2017-12-26T03:37:58.588Z,0
2017-12-26T03:38:39.065Z,0
2017-12-26T03:39:19.494Z,0
2017-12-26T03:40:01.243Z,0
2017-12-26T03:40:41.738Z,0
2017-12-26T03:41:22.262Z,0
2017-12-26T03:42:03.150Z,0
2017-12-26T03:42:43.523Z,0
2017-12-26T03:43:23.853Z,0
2017-12-26T03:44:05.207Z,0
2017-12-26T03:44:45.918Z,0
2017-12-26T03:45:26.299Z,0
2017-12-26T03:46:06.788Z,0
2017-12-26T03:46:47.119Z,0
2017-12-26T03:47:27.690Z,0
2017-12-26T03:48:08.090Z,0
2017-12-26T03:48:48.575Z,0
2017-12-26T03:49:29.101Z,0
2017-12-26T03:50:09.524Z,0
2017-12-26T03:50:49.977Z,0
2017-12-26T03:51:30.312Z,0
2017-12-26T03:52:10.677Z,0
2017-12-26T03:52:51.184Z,0
2017-12-26T03:53:31.716Z,0
2017-12-26T03:54:12.458Z,0
2017-12-26T03:54:52.711Z,0
2017-12-26T03:55:33.168Z,0
2017-12-26T03:56:13.562Z,0
2017-12-26T03:56:54.029Z,0
2017-12-26T03:57:34.440Z,0
2017-12-26T03:58:14.818Z,0
2017-12-26T03:58:55.200Z,0
2017-12-26T03:59:35.691Z,0
2017-12-26T04:00:16.172Z,0
2017-12-26T04:00:56.551Z,0
2017-12-26T04:01:36.889Z,0
2017-12-26T04:02:17.341Z,0
2017-12-26T04:02:57.795Z,0
2017-12-26T04:46:46.188Z,0
2017-12-26T04:47:26.452Z,0
2017-12-26T04:48:07.047Z,0
2017-12-26T04:48:47.725Z,0
2017-12-26T04:49:28.474Z,0
2017-12-26T04:50:08.941Z,0
2017-12-26T04:50:49.479Z,0
2017-12-26T04:51:29.827Z,0
2017-12-26T04:52:10.324Z,0
2017-12-26T04:52:50.719Z,0
2017-12-26T04:53:32.155Z,0
2017-12-26T04:54:13.139Z,0
2017-12-26T04:54:53.581Z,0
2017-12-26T04:58:33.230Z,0
2017-12-26T04:59:13.564Z,0
2017-12-26T04:59:53.989Z,0
2017-12-26T05:00:34.619Z,0
2017-12-26T05:01:15.153Z,0
2017-12-26T05:01:56.248Z,0
2017-12-26T05:02:36.353Z,0
2017-12-26T05:03:17.445Z,0
2017-12-26T05:03:57.297Z,0
2017-12-26T05:04:38.201Z,0
2017-12-26T05:05:18.593Z,0
2017-12-26T05:05:59.040Z,0
2017-12-26T05:06:39.448Z,0
2017-12-26T05:07:19.951Z,0
2017-12-26T05:08:00.417Z,0
2017-12-26T05:08:41.042Z,0
2017-12-26T05:09:21.362Z,0
2017-12-26T05:10:01.957Z,0
2017-12-26T05:10:42.440Z,0
2017-12-26T05:11:22.911Z,0
2017-12-26T05:12:04.059Z,0
2017-12-26T05:12:44.584Z,0
2017-12-26T05:13:25.430Z,0
2017-12-26T05:14:05.771Z,0
2017-12-26T05:14:46.356Z,0
2017-12-26T05:15:26.679Z,0
2017-12-26T05:16:07.961Z,0
2017-12-26T05:16:48.415Z,0
2017-12-26T05:17:29.470Z,0
2017-12-26T05:18:09.995Z,0
2017-12-26T05:18:50.469Z,0
2017-12-26T05:19:30.815Z,0
2017-12-26T05:20:11.565Z,0
2017-12-26T05:20:51.877Z,0
2017-12-26T05:21:32.229Z,0
2017-12-26T05:22:12.946Z,0
2017-12-26T05:22:53.534Z,0
2017-12-26T05:23:34.107Z,0
2017-12-26T05:24:14.766Z,0
2017-12-26T05:24:55.158Z,0
2017-12-26T05:25:36.146Z,0
2017-12-26T05:26:16.489Z,0
2017-12-26T05:26:57.338Z,0
2017-12-26T05:27:38.165Z,0
2017-12-26T05:28:18.635Z,0
2017-12-26T05:28:59.039Z,0
2017-12-26T05:29:39.413Z,0
2017-12-26T05:30:20.265Z,0
2017-12-26T05:31:00.849Z,0
2017-12-26T05:31:41.830Z,0
2017-12-26T05:32:22.005Z,0
2017-12-26T05:33:02.496Z,0
2017-12-26T05:33:42.998Z,0
2017-12-26T05:34:23.607Z,0
2017-12-26T05:35:04.287Z,0
2017-12-26T05:35:44.788Z,0
2017-12-26T05:36:25.204Z,0
2017-12-26T05:37:06.911Z,0
2017-12-26T05:37:47.400Z,0
2017-12-26T05:38:28.242Z,0
2017-12-26T05:39:10.430Z,0
2017-12-26T05:39:50.831Z,0
2017-12-26T05:40:31.216Z,0
2017-12-26T05:41:11.638Z,0
2017-12-26T05:41:52.409Z,0
2017-12-26T05:42:33.200Z,0
2017-12-26T05:43:13.480Z,0
2017-12-26T05:43:54.539Z,0
2017-12-26T05:44:34.937Z,0
2017-12-26T05:45:15.431Z,0
2017-12-26T05:45:56.262Z,0
2017-12-26T05:46:36.613Z,0
2017-12-26T05:47:18.214Z,0
2017-12-26T05:47:58.591Z,0
2017-12-26T05:48:39.094Z,0
2017-12-26T05:49:19.452Z,0
2017-12-26T05:49:59.936Z,0
2017-12-26T05:50:40.426Z,0
2017-12-26T05:51:20.775Z,0
2017-12-26T05:52:01.183Z,0
2017-12-26T05:52:42.196Z,0
2017-12-26T05:53:23.368Z,0
2017-12-26T05:54:04.883Z,0
2017-12-26T05:54:45.476Z,0
2017-12-26T05:55:25.956Z,0
2017-12-26T05:56:06.712Z,0
2017-12-26T05:56:47.033Z,0
2017-12-26T05:57:27.857Z,0
2017-12-26T05:58:08.197Z,0
2017-12-26T05:58:48.824Z,0
2017-12-26T05:59:29.387Z,0
2017-12-26T06:00:09.822Z,0
2017-12-26T06:00:50.323Z,0
2017-12-26T06:01:30.715Z,0
2017-12-26T06:02:11.082Z,0
2017-12-26T06:02:51.820Z,0
2017-12-26T06:03:34.517Z,0
2017-12-26T06:04:14.384Z,0
2017-12-26T06:04:55.040Z,0
2017-12-26T06:05:35.387Z,0
2017-12-26T06:06:15.929Z,0
2017-12-26T06:06:56.226Z,0
2017-12-26T06:07:36.635Z,0
2017-12-26T06:08:17.358Z,0
2017-12-26T06:08:58.035Z,0
2017-12-26T06:09:38.312Z,0
2017-12-26T06:10:18.994Z,0
2017-12-26T06:10:59.731Z,0
2017-12-26T06:11:40.842Z,0
2017-12-26T06:12:21.194Z,0
2017-12-26T06:13:01.601Z,0
2017-12-26T06:13:42.005Z,0
2017-12-26T06:14:22.752Z,0
2017-12-26T06:15:03.356Z,0
2017-12-26T06:15:43.883Z,0
2017-12-26T06:16:27.687Z,0
2017-12-26T06:17:08.323Z,0
2017-12-26T06:17:48.887Z,0
2017-12-26T06:18:29.654Z,0
2017-12-26T06:19:10.018Z,0
2017-12-26T06:19:51.172Z,0
2017-12-26T06:20:31.584Z,0
2017-12-26T06:21:12.903Z,0
2017-12-26T06:21:53.599Z,0
2017-12-26T06:22:34.339Z,0
2017-12-26T06:23:16.127Z,0
2017-12-26T06:23:55.989Z,0
2017-12-26T06:24:37.574Z,0
2017-12-26T06:25:17.897Z,0
2017-12-26T06:25:58.534Z,0
2017-12-26T06:26:42.210Z,0
2017-12-26T06:27:22.929Z,0
2017-12-26T06:28:03.664Z,0
2017-12-26T06:28:44.422Z,0
2017-12-26T06:29:24.770Z,0
2017-12-26T06:30:05.433Z,0
2017-12-26T06:30:46.475Z,0
2017-12-26T06:31:26.821Z,0
2017-12-26T06:32:08.012Z,0
2017-12-26T06:32:48.519Z,0
2017-12-26T06:33:29.387Z,0
2017-12-26T06:34:09.975Z,0
2017-12-26T06:34:50.716Z,0
2017-12-26T06:35:30.977Z,0
2017-12-26T06:36:11.371Z,0
2017-12-26T06:36:56.139Z,0
2017-12-26T06:37:34.736Z,0
2017-12-26T06:46:40.174Z,0
2017-12-26T06:47:20.937Z,0
2017-12-26T06:48:01.400Z,0
2017-12-26T06:48:41.926Z,0
2017-12-26T06:49:22.653Z,0
2017-12-26T06:50:03.041Z,0
2017-12-26T06:50:43.434Z,0
2017-12-26T06:51:23.923Z,0
2017-12-26T06:52:04.325Z,0
2017-12-26T06:52:44.874Z,0
2017-12-26T06:53:25.357Z,0
2017-12-26T06:54:05.765Z,0
2017-12-26T06:54:46.362Z,0
2017-12-26T06:57:00.380Z,0
2017-12-26T06:57:40.706Z,0
2017-12-26T06:58:21.074Z,0
2017-12-26T06:59:01.643Z,0
2017-12-26T06:59:42.139Z,0
2017-12-26T07:00:22.557Z,0
2017-12-26T07:01:02.910Z,0
2017-12-26T07:01:43.309Z,0
2017-12-26T07:02:23.798Z,0
2017-12-26T07:03:04.169Z,0
2017-12-26T07:06:37.718Z,0
2017-12-26T07:07:18.272Z,0
2017-12-26T07:07:58.620Z,0
2017-12-26T07:08:39.113Z,0
2017-12-26T07:09:19.454Z,0
2017-12-26T07:09:59.852Z,0
2017-12-26T07:10:40.407Z,0
2017-12-26T07:11:20.805Z,0
2017-12-26T07:12:01.317Z,0
2017-12-26T07:12:42.081Z,0
2017-12-26T07:13:22.322Z,0
2017-12-26T07:14:03.134Z,0
2017-12-26T07:14:43.551Z,0
2017-12-26T07:15:24.131Z,0
2017-12-26T07:16:04.438Z,0
2017-12-26T07:16:44.888Z,0
2017-12-26T07:17:25.339Z,0
2017-12-26T07:18:05.880Z,0
2017-12-26T07:18:46.998Z,0
2017-12-26T07:19:27.291Z,0
2017-12-26T07:20:07.760Z,0
2017-12-26T07:20:48.177Z,0
2017-12-26T07:21:28.638Z,0
2017-12-26T07:22:09.149Z,0
2017-12-26T07:22:49.432Z,0
2017-12-26T07:23:30.014Z,0
2017-12-26T07:27:43.796Z,0
2017-12-26T07:28:24.221Z,0
2017-12-26T07:29:07.129Z,0
2017-12-26T07:29:47.219Z,0
2017-12-26T07:30:27.700Z,0
2017-12-26T07:31:08.504Z,0
2017-12-26T07:31:49.144Z,0
2017-12-26T07:32:29.620Z,0
2017-12-26T07:33:10.084Z,0
2017-12-26T07:33:50.639Z,0
2017-12-26T07:34:31.644Z,0
2017-12-26T07:35:13.288Z,0
2017-12-26T07:35:54.114Z,0
2017-12-26T07:36:34.290Z,0
2017-12-26T07:37:16.851Z,0
2017-12-26T07:37:57.831Z,0
2017-12-26T07:38:38.302Z,0
2017-12-26T07:39:18.853Z,0
2017-12-26T07:39:59.517Z,0
2017-12-26T07:40:39.929Z,0
2017-12-26T07:41:20.686Z,0
2017-12-26T07:42:01.202Z,0
2017-12-26T07:42:41.722Z,0
2017-12-26T07:43:22.133Z,0
2017-12-26T07:44:02.549Z,0
2017-12-26T07:44:42.895Z,0
2017-12-26T07:45:23.300Z,0
2017-12-26T07:46:04.301Z,0
2017-12-26T07:46:44.969Z,0
2017-12-26T07:47:25.277Z,0
2017-12-26T07:48:05.668Z,0
2017-12-26T07:48:46.144Z,0
2017-12-26T07:49:26.958Z,0
2017-12-26T07:50:07.361Z,0
2017-12-26T07:50:49.204Z,0
2017-12-26T07:51:29.289Z,0
2017-12-26T07:52:09.749Z,0
2017-12-26T07:52:50.390Z,0
2017-12-26T07:53:31.203Z,0
2017-12-26T07:54:11.761Z,0
2017-12-26T07:54:52.055Z,0
2017-12-26T07:55:32.397Z,0
2017-12-26T07:56:12.794Z,0
2017-12-26T07:56:53.181Z,0
2017-12-26T07:57:33.585Z,0
2017-12-26T07:58:13.992Z,0
2017-12-26T07:58:54.543Z,0
2017-12-26T07:59:34.794Z,0
2017-12-26T08:00:15.224Z,0
2017-12-26T08:11:00.568Z,0
2017-12-26T08:11:38.725Z,0
2017-12-26T08:12:19.865Z,0
2017-12-26T08:13:00.018Z,0
2017-12-26T08:13:40.380Z,0
2017-12-26T08:14:21.028Z,0
2017-12-26T08:15:01.424Z,0
2017-12-26T08:15:41.836Z,0
2017-12-26T08:16:22.262Z,0
2017-12-26T08:17:02.789Z,0
2017-12-26T08:17:43.186Z,0
2017-12-26T08:18:23.894Z,0
2017-12-26T08:19:05.377Z,0
2017-12-26T08:19:45.710Z,0
2017-12-26T08:20:26.213Z,0
2017-12-26T08:21:06.621Z,0
2017-12-26T08:21:47.989Z,0
2017-12-26T08:22:28.627Z,0
2017-12-26T08:23:09.036Z,0
2017-12-26T08:23:49.655Z,0
2017-12-26T08:24:29.842Z,0
2017-12-26T08:25:10.276Z,0
2017-12-26T08:25:52.294Z,0
2017-12-26T08:26:31.895Z,0
2017-12-26T08:27:12.196Z,0
2017-12-26T08:27:53.102Z,0
2017-12-26T08:28:33.328Z,0
2017-12-26T08:29:14.864Z,0
2017-12-26T08:29:55.392Z,0
2017-12-26T08:30:37.345Z,0
2017-12-26T08:31:17.931Z,0
2017-12-26T08:31:58.204Z,0
2017-12-26T08:32:39.158Z,0
2017-12-26T08:37:58.674Z,0
2017-12-26T08:38:39.517Z,0
2017-12-26T08:39:20.302Z,5
2017-12-26T08:40:01.572Z,5
2017-12-26T08:40:43.980Z,5
2017-12-26T08:41:24.616Z,5
2017-12-26T08:42:05.371Z,5
2017-12-26T08:42:48.254Z,5
2017-12-26T08:43:27.637Z,5
2017-12-26T08:44:09.259Z,5
2017-12-26T08:44:50.224Z,5
2017-12-26T08:45:34.481Z,5
2017-12-26T08:46:17.382Z,5
2017-12-26T08:46:58.118Z,5
2017-12-26T08:47:40.959Z,0
2017-12-26T08:48:22.819Z,0
2017-12-26T08:49:04.490Z,0
2017-12-26T08:49:45.747Z,0
2017-12-26T08:50:27.241Z,0
2017-12-26T08:51:07.880Z,0
2017-12-26T08:51:51.936Z,0
2017-12-26T08:52:32.110Z,0
2017-12-26T08:53:13.308Z,0
2017-12-26T08:53:53.661Z,0
2017-12-26T08:54:38.078Z,0
2017-12-26T08:55:20.095Z,0
2017-12-26T08:56:03.170Z,0
2017-12-26T08:56:46.302Z,0
2017-12-26T08:57:28.213Z,0
2017-12-26T08:58:09.461Z,0
2017-12-26T08:58:53.522Z,0
2017-12-26T08:59:33.567Z,0
2017-12-26T09:00:14.849Z,0
2017-12-26T09:00:55.639Z,0
2017-12-26T09:01:37.298Z,0
2017-12-26T09:02:17.727Z,0
2017-12-26T09:02:59.857Z,0
2017-12-26T09:03:41.878Z,0
2017-12-26T09:04:24.207Z,0
2017-12-26T09:05:06.440Z,0
2017-12-26T09:05:50.655Z,0
2017-12-26T09:06:30.950Z,0
2017-12-26T09:07:14.781Z,0
2017-12-26T09:07:55.845Z,0
2017-12-26T09:08:37.563Z,0
2017-12-26T09:09:19.463Z,0
2017-12-26T09:10:02.730Z,0
2017-12-26T09:10:43.188Z,0
2017-12-26T09:11:26.044Z,0
2017-12-26T09:12:07.791Z,0
2017-12-26T09:12:48.800Z,0
2017-12-26T09:18:09.763Z,5
2017-12-26T09:18:50.385Z,5
2017-12-26T09:19:34.301Z,5
2017-12-26T09:20:14.102Z,5
2017-12-26T09:20:54.893Z,5
2017-12-26T09:21:37.559Z,5
2017-12-26T09:22:19.079Z,5
2017-12-26T09:22:59.602Z,5
2017-12-26T09:23:40.968Z,5
2017-12-26T09:24:22.903Z,10
2017-12-26T09:25:04.447Z,10
2017-12-26T09:25:44.886Z,10
2017-12-26T09:26:25.535Z,10
2017-12-26T09:27:06.335Z,10
2017-12-26T09:27:50.961Z,10
2017-12-26T09:28:34.755Z,10
2017-12-26T09:29:15.880Z,10
2017-12-26T09:29:56.926Z,10
2017-12-26T09:30:37.282Z,10
2017-12-26T09:31:18.699Z,10
2017-12-26T09:32:00.708Z,10
2017-12-26T09:32:40.640Z,10
2017-12-26T09:33:23.854Z,10
2017-12-26T09:34:04.398Z,10
2017-12-26T09:34:45.092Z,10
2017-12-26T09:35:25.843Z,10
2017-12-26T09:36:06.886Z,10
2017-12-26T09:36:47.979Z,5
2017-12-26T09:37:28.561Z,5
2017-12-26T09:38:09.366Z,5
2017-12-26T09:38:50.099Z,5
2017-12-26T09:39:31.013Z,5
2017-12-26T09:40:12.218Z,5
2017-12-26T09:40:52.313Z,5
2017-12-26T09:41:32.795Z,5
2017-12-26T09:42:13.187Z,5
2017-12-26T09:42:53.757Z,5
2017-12-26T09:43:35.275Z,5
2017-12-26T09:44:15.584Z,5
2017-12-26T09:44:56.113Z,5
2017-12-26T09:45:37.349Z,5
2017-12-26T09:46:18.862Z,5
2017-12-26T09:46:58.771Z,5
2017-12-26T09:47:39.236Z,5
2017-12-26T09:48:19.451Z,5
2017-12-26T09:49:00.646Z,5
2017-12-26T09:49:40.372Z,5
2017-12-26T09:50:20.754Z,5
2017-12-26T09:51:02.073Z,5
2017-12-26T09:51:43.701Z,5
2017-12-26T09:52:23.985Z,5
2017-12-26T09:53:05.355Z,5
2017-12-26T09:53:46.056Z,5
2017-12-26T09:54:27.672Z,5
2017-12-26T09:55:08.722Z,5
2017-12-26T09:55:49.268Z,5
2017-12-26T09:56:29.909Z,5
2017-12-26T09:59:19.002Z,5
2017-12-26T09:59:57.620Z,10
2017-12-26T10:00:38.949Z,10
2017-12-26T10:01:19.269Z,10
2017-12-26T10:01:59.521Z,10
2017-12-26T10:02:40.012Z,10
2017-12-26T10:03:20.330Z,10
2017-12-26T10:04:00.869Z,10
2017-12-26T10:42:11.840Z,20
2017-12-26T10:42:51.069Z,20
2017-12-26T10:43:31.628Z,20
2017-12-26T10:44:11.855Z,20
2017-12-26T10:44:52.317Z,20
2017-12-26T10:45:33.253Z,20
2017-12-26T10:46:13.646Z,20
2017-12-26T10:46:55.821Z,20
2017-12-26T10:47:36.416Z,20
2017-12-26T10:48:17.292Z,20
2017-12-26T10:48:57.910Z,20
2017-12-26T10:49:38.132Z,20
2017-12-26T10:50:18.575Z,20
2017-12-26T10:50:59.181Z,20
2017-12-26T10:51:39.651Z,20
2017-12-26T10:52:20.447Z,25
2017-12-26T10:53:01.725Z,25
2017-12-26T10:53:43.008Z,25
2017-12-26T10:54:23.646Z,25
2017-12-26T10:55:03.946Z,25
2017-12-26T10:55:44.349Z,25
2017-12-26T10:56:25.211Z,25
2017-12-26T10:57:06.086Z,25
2017-12-26T10:57:46.937Z,25
2017-12-26T10:58:27.656Z,25
2017-12-26T10:59:08.133Z,25
2017-12-26T10:59:49.812Z,25
2017-12-26T11:00:30.872Z,25
2017-12-26T11:01:10.892Z,25
2017-12-26T11:01:51.490Z,25
2017-12-26T11:02:32.158Z,30
2017-12-26T11:03:12.861Z,25
2017-12-26T11:03:53.436Z,30
2017-12-26T11:04:33.774Z,35
2017-12-26T11:05:15.388Z,30
2017-12-26T11:05:56.472Z,40
2017-12-26T11:06:36.801Z,40
2017-12-26T11:07:17.162Z,30
2017-12-26T11:07:58.198Z,35
2017-12-26T11:08:38.649Z,45
2017-12-26T11:09:19.532Z,45
2017-12-26T11:10:00.857Z,40
2017-12-26T11:10:41.698Z,40
2017-12-26T11:11:22.321Z,30
2017-12-26T11:12:02.891Z,40
2017-12-26T11:12:43.519Z,30
2017-12-26T11:13:23.953Z,40
2017-12-26T11:14:05.420Z,45
2017-12-26T11:14:46.214Z,30
2017-12-26T11:15:26.778Z,30
2017-12-26T11:17:47.147Z,40
2017-12-26T11:18:27.619Z,40
2017-12-26T11:19:08.124Z,40
2017-12-26T11:19:48.566Z,40
2017-12-26T11:20:29.143Z,40
2017-12-26T11:21:09.744Z,45
2017-12-26T11:21:50.758Z,40
2017-12-26T11:22:31.132Z,45
2017-12-26T11:23:12.298Z,40
2017-12-26T11:23:52.926Z,30
2017-12-26T11:24:33.210Z,45
2017-12-26T11:25:13.942Z,25
2017-12-26T11:25:54.117Z,45
2017-12-26T11:26:34.833Z,45
2017-12-26T11:27:16.561Z,45
2017-12-26T11:27:57.136Z,30
2017-12-26T11:28:37.667Z,45
2017-12-26T11:29:18.045Z,30
2017-12-26T11:29:59.296Z,45
2017-12-26T11:30:39.801Z,45
2017-12-26T11:31:21.469Z,40
2017-12-26T11:32:02.544Z,40
2017-12-26T11:32:43.330Z,45
2017-12-26T11:33:24.063Z,40
2017-12-26T11:34:04.640Z,40
2017-12-26T11:34:45.081Z,45
2017-12-26T11:35:25.954Z,45
2017-12-26T11:36:06.634Z,45
2017-12-26T11:36:47.391Z,45
2017-12-26T11:37:27.828Z,45
2017-12-26T11:38:09.373Z,40
2017-12-26T11:41:12.177Z,40
2017-12-26T11:41:52.651Z,45
2017-12-26T11:42:33.417Z,40
2017-12-26T11:43:13.873Z,40
2017-12-26T11:43:54.272Z,40
2017-12-26T11:44:35.147Z,40
2017-12-26T11:45:16.006Z,40
2017-12-26T11:45:56.475Z,40
2017-12-26T11:46:37.064Z,40
2017-12-26T11:47:17.615Z,45
2017-12-26T11:47:58.224Z,40
2017-12-26T11:48:38.732Z,40
2017-12-26T11:49:19.482Z,45
2017-12-26T11:50:00.201Z,45
2017-12-26T11:50:40.812Z,45
2017-12-26T11:51:21.260Z,45
2017-12-26T11:52:01.907Z,40
2017-12-26T11:52:42.866Z,45
2017-12-26T11:53:22.912Z,40
2017-12-26T11:54:03.589Z,30
2017-12-26T11:54:44.097Z,25
2017-12-26T11:55:24.830Z,25
2017-12-26T11:56:06.440Z,25
2017-12-26T11:56:46.420Z,25
2017-12-26T11:57:27.107Z,25
2017-12-26T11:58:08.321Z,25
2017-12-26T11:58:48.747Z,25
2017-12-26T11:59:30.383Z,25
2017-12-26T12:00:10.159Z,30
2017-12-26T12:00:50.521Z,30
2017-12-26T12:01:32.867Z,35
2017-12-26T12:02:13.984Z,45
2017-12-26T12:02:54.791Z,45
2017-12-26T12:03:35.949Z,45
2017-12-26T12:04:16.325Z,45
2017-12-26T12:04:57.102Z,45
2017-12-26T12:05:37.645Z,45
2017-12-26T12:06:18.003Z,40
2017-12-26T12:06:58.415Z,40
2017-12-26T12:10:00.114Z,40
2017-12-26T12:10:50.846Z,45
2017-12-26T12:11:39.805Z,45
2017-12-26T12:12:35.471Z,45
2017-12-26T12:13:26.823Z,45
2017-12-26T12:17:05.361Z,40
2017-12-26T12:17:46.171Z,40
2017-12-26T12:18:26.635Z,35
2017-12-26T12:19:07.210Z,40
2017-12-26T12:19:47.800Z,35
2017-12-26T12:20:28.453Z,35